Time;durP1;ratioP1;P1;durP2;ratioP2;P2;SDS_P1;SDS_P2;PMS_P1;PMS_P2;Temp;Humidity;BMP_temperature;BMP_pressure;BME280_temperature;BME280_humidity;BME280_pressure;Samples;Min_cycle;Max_cycle;Signal;HPM_P1;HPM_P2
2021/05/20 00:00:40;;;;;;;9.52;1.98;;;;;;;;;;4418947;32;20652;-53
2021/05/20 00:03:05;;;;;;;10.90;1.70;;;;;;;;;;4418546;32;20256;-53
2021/05/20 00:05:31;;;;;;;5.60;1.95;;;;;;;;;;4418874;32;20402;-55
2021/05/20 00:07:56;;;;;;;12.85;1.90;;;;;;;;;;4392432;32;20261;-54
2021/05/20 00:10:22;;;;;;;4.10;1.70;;;;;;;;;;4418983;32;20598;-54
2021/05/20 00:12:47;;;;;;;9.70;1.70;;;;;;;;;;4404919;32;20221;-54
2021/05/20 00:15:14;;;;;;;4.85;1.62;;;;;;;;;;4418894;32;20298;-54
2021/05/20 00:17:40;;;;;;;11.40;2.17;;;;;;;;;;4418922;32;20327;-54
2021/05/20 00:20:06;;;;;;;4.93;1.80;;;;;;;;;;4418461;32;20290;-54
2021/05/20 00:22:31;;;;;;;8.35;2.50;;;;;;;;;;4418369;32;20245;-54
2021/05/20 00:24:57;;;;;;;4.78;1.50;;;;;;;;;;4418445;32;20287;-54
2021/05/20 00:27:22;;;;;;;7.78;1.60;;;;;;;;;;4418794;32;20245;-54
2021/05/20 00:29:49;;;;;;;6.28;1.80;;;;;;;;;;4418164;32;20237;-54
2021/05/20 00:32:16;;;;;;;8.77;1.87;;;;;;;;;;4418474;32;20342;-53
2021/05/20 00:34:41;;;;;;;8.77;1.75;;;;;;;;;;4418086;32;20201;-53
2021/05/20 00:37:07;;;;;;;8.98;2.15;;;;;;;;;;4418380;32;20682;-54
2021/05/20 00:39:32;;;;;;;8.05;1.92;;;;;;;;;;4418457;32;20651;-54
2021/05/20 00:42:04;;;;;;;6.22;2.25;;;;;;;;;;4418343;32;21009;-54
2021/05/20 00:44:29;;;;;;;4.78;1.77;;;;;;;;;;4418267;32;20197;-54
2021/05/20 00:46:55;;;;;;;6.45;2.12;;;;;;;;;;4404655;32;20396;-55
2021/05/20 00:49:21;;;;;;;9.38;2.15;;;;;;;;;;4418111;32;20209;-54
2021/05/20 00:51:47;;;;;;;7.47;2.28;;;;;;;;;;4417883;32;20213;-54
2021/05/20 00:54:12;;;;;;;7.95;2.22;;;;;;;;;;4418112;32;20262;-54
2021/05/20 00:56:39;;;;;;;6.05;2.15;;;;;;;;;;4418011;32;20233;-54
2021/05/20 00:59:05;;;;;;;8.55;1.98;;;;;;;;;;4418012;32;20299;-55
2021/05/20 01:01:32;;;;;;;5.20;2.15;;;;;;;;;;4418068;32;20295;-56
2021/05/20 01:03:58;;;;;;;8.25;1.87;;;;;;;;;;4417588;32;20256;-55
2021/05/20 01:06:24;;;;;;;9.10;1.83;;;;;;;;;;4417973;32;20666;-54
2021/05/20 01:08:49;;;;;;;5.37;1.85;;;;;;;;;;4417746;32;20202;-54
2021/05/20 01:11:15;;;;;;;9.25;2.08;;;;;;;;;;4417390;32;20602;-55
2021/05/20 01:13:40;;;;;;;10.43;2.30;;;;;;;;;;4417618;32;20251;-55
2021/05/20 01:16:10;;;;;;;6.65;1.80;;;;;;;;;;4418050;32;20272;-55
2021/05/20 01:18:36;;;;;;;5.72;1.73;;;;;;;;;;4417381;32;20213;-55
2021/05/20 01:21:01;;;;;;;8.38;1.92;;;;;;;;;;4417698;32;20264;-55
2021/05/20 01:23:27;;;;;;;9.10;2.80;;;;;;;;;;4417552;32;20678;-54
2021/05/20 01:25:53;;;;;;;11.77;1.92;;;;;;;;;;4417547;32;20268;-55
2021/05/20 01:28:20;;;;;;;8.70;2.22;;;;;;;;;;4417555;32;20198;-55
2021/05/20 01:30:48;;;;;;;6.70;1.80;;;;;;;;;;4417705;32;20633;-55
2021/05/20 01:33:13;;;;;;;15.20;1.83;;;;;;;;;;4417450;32;20208;-55
2021/05/20 01:35:40;;;;;;;15.82;2.28;;;;;;;;;;4417499;32;20333;-56
2021/05/20 01:38:26;;;;;;;13.50;1.80;;;;;;;;;;4417719;32;20308;-54
2021/05/20 01:40:50;;;;;;;5.87;1.45;;;;;;;;;;4417602;32;20304;-54
2021/05/20 01:43:16;;;;;;;8.70;1.83;;;;;;;;;;4417730;32;20224;-54
2021/05/20 01:45:42;;;;;;;6.70;1.85;;;;;;;;;;4403405;32;20383;-56
2021/05/20 01:48:08;;;;;;;8.20;1.95;;;;;;;;;;4417286;32;20209;-54
2021/05/20 01:50:33;;;;;;;8.40;2.08;;;;;;;;;;4417595;32;20342;-56
2021/05/20 01:52:59;;;;;;;5.05;2.28;;;;;;;;;;4403832;32;20241;-54
2021/05/20 01:55:24;;;;;;;12.27;2.50;;;;;;;;;;4417623;32;20462;-54
2021/05/20 01:57:50;;;;;;;9.13;2.35;;;;;;;;;;4403411;32;20393;-54
2021/05/20 02:00:16;;;;;;;7.90;1.73;;;;;;;;;;4403591;32;20758;-54
2021/05/20 02:02:41;;;;;;;8.30;2.05;;;;;;;;;;4417289;32;20236;-55
2021/05/20 02:05:07;;;;;;;7.68;2.25;;;;;;;;;;4417595;32;20198;-54
2021/05/20 02:07:33;;;;;;;17.95;2.35;;;;;;;;;;4417585;32;20221;-54
2021/05/20 02:09:58;;;;;;;11.25;2.30;;;;;;;;;;4417064;32;20311;-54
2021/05/20 02:12:23;;;;;;;9.63;2.50;;;;;;;;;;4417621;32;20229;-54
2021/05/20 02:14:49;;;;;;;6.75;2.05;;;;;;;;;;4417432;32;20197;-54
2021/05/20 02:17:14;;;;;;;3.62;1.77;;;;;;;;;;4417569;32;20625;-55
2021/05/20 02:19:40;;;;;;;7.85;2.08;;;;;;;;;;4417225;32;20244;-55
2021/05/20 02:22:05;;;;;;;8.80;1.50;;;;;;;;;;4417221;32;20260;-54
2021/05/20 02:24:31;;;;;;;5.68;1.55;;;;;;;;;;4419544;32;20316;-57
2021/05/20 02:26:56;;;;;;;6.28;1.67;;;;;;;;;;4420442;32;20236;-55
2021/05/20 02:29:22;;;;;;;7.05;2.05;;;;;;;;;;4420372;32;20201;-55
2021/05/20 02:31:47;;;;;;;6.53;1.77;;;;;;;;;;4420228;32;20653;-55
2021/05/20 02:34:12;;;;;;;4.28;1.55;;;;;;;;;;4419942;32;20586;-55
2021/05/20 02:36:38;;;;;;;6.90;1.58;;;;;;;;;;4420379;32;20282;-54
2021/05/20 02:39:04;;;;;;;7.62;2.10;;;;;;;;;;4420348;32;20224;-53
2021/05/20 02:41:29;;;;;;;2.75;1.50;;;;;;;;;;4420263;32;20641;-54
2021/05/20 02:43:55;;;;;;;6.00;1.87;;;;;;;;;;4420190;32;20341;-54
2021/05/20 02:46:20;;;;;;;8.20;1.70;;;;;;;;;;4420279;32;20346;-55
2021/05/20 02:48:46;;;;;;;4.55;1.92;;;;;;;;;;4420178;32;20227;-55
2021/05/20 02:51:11;;;;;;;7.62;1.90;;;;;;;;;;4420564;32;20225;-56
2021/05/20 02:53:37;;;;;;;5.80;2.22;;;;;;;;;;4420222;32;20201;-55
2021/05/20 02:56:02;;;;;;;3.05;1.70;;;;;;;;;;4420065;32;20288;-55
2021/05/20 02:58:28;;;;;;;6.10;1.27;;;;;;;;;;4420392;32;20210;-55
2021/05/20 03:00:53;;;;;;;3.00;1.42;;;;;;;;;;4406596;32;20743;-56
2021/05/20 03:03:19;;;;;;;5.72;1.45;;;;;;;;;;4419890;32;20243;-55
2021/05/20 03:05:44;;;;;;;5.57;1.67;;;;;;;;;;4420376;32;20276;-55
2021/05/20 03:08:11;;;;;;;5.57;1.50;;;;;;;;;;4420344;32;20350;-56
2021/05/20 03:10:37;;;;;;;7.37;2.97;;;;;;;;;;4420024;32;20418;-57
2021/05/20 03:13:03;;;;;;;7.00;2.78;;;;;;;;;;4420131;32;20305;-56
2021/05/20 03:15:28;;;;;;;5.93;1.90;;;;;;;;;;4419942;32;20273;-56
2021/05/20 03:17:54;;;;;;;6.10;2.15;;;;;;;;;;4419827;32;20249;-56
2021/05/20 03:20:19;;;;;;;8.27;2.03;;;;;;;;;;4419965;32;20264;-55
2021/05/20 03:22:48;;;;;;;5.20;1.15;;;;;;;;;;4419777;32;20237;-56
2021/05/20 03:25:15;;;;;;;10.45;1.77;;;;;;;;;;4419586;32;20605;-56
2021/05/20 03:27:41;;;;;;;8.77;2.05;;;;;;;;;;4419881;32;20541;-55
2021/05/20 03:30:07;;;;;;;5.87;1.45;;;;;;;;;;4419529;32;20279;-55
2021/05/20 03:32:33;;;;;;;9.57;2.00;;;;;;;;;;4419585;32;20247;-55
2021/05/20 03:34:58;;;;;;;5.35;1.83;;;;;;;;;;4418819;32;20623;-55
2021/05/20 03:37:24;;;;;;;3.90;1.48;;;;;;;;;;4419841;32;20234;-55
2021/05/20 03:39:49;;;;;;;3.62;1.42;;;;;;;;;;4419381;32;20648;-55
2021/05/20 03:42:15;;;;;;;6.30;1.50;;;;;;;;;;4419476;32;20293;-55
2021/05/20 03:44:40;;;;;;;3.35;1.45;;;;;;;;;;4419110;32;20262;-55
2021/05/20 03:47:06;;;;;;;6.05;1.80;;;;;;;;;;4419423;32;20445;-55
2021/05/20 03:49:31;;;;;;;6.22;2.08;;;;;;;;;;4419168;32;20228;-55
2021/05/20 03:51:57;;;;;;;6.07;1.83;;;;;;;;;;4419422;32;20663;-55
2021/05/20 03:54:23;;;;;;;4.12;1.98;;;;;;;;;;4419084;32;20223;-55
2021/05/20 03:56:49;;;;;;;4.78;2.08;;;;;;;;;;4419352;32;20257;-55
2021/05/20 03:59:14;;;;;;;6.20;1.75;;;;;;;;;;4419294;32;20330;-55
2021/05/20 04:01:40;;;;;;;6.97;2.65;;;;;;;;;;4418945;32;20316;-55
2021/05/20 04:04:06;;;;;;;4.97;1.60;;;;;;;;;;4405192;32;20579;-55
2021/05/20 04:06:32;;;;;;;4.72;1.83;;;;;;;;;;4419205;32;20229;-55
2021/05/20 04:08:57;;;;;;;2.87;1.65;;;;;;;;;;4404998;32;20585;-55
2021/05/20 04:11:23;;;;;;;4.12;1.73;;;;;;;;;;4419105;32;20225;-54
2021/05/20 04:13:48;;;;;;;4.05;1.62;;;;;;;;;;4418887;32;20290;-54
2021/05/20 04:16:14;;;;;;;4.30;2.40;;;;;;;;;;4419213;32;20637;-55
2021/05/20 04:18:40;;;;;;;5.90;2.10;;;;;;;;;;4418739;32;20204;-55
2021/05/20 04:21:05;;;;;;;10.60;2.45;;;;;;;;;;4418732;32;20295;-54
2021/05/20 04:23:31;;;;;;;6.10;2.83;;;;;;;;;;4418539;32;20694;-55
2021/05/20 04:25:57;;;;;;;2.97;1.90;;;;;;;;;;4418810;32;20771;-55
2021/05/20 04:28:22;;;;;;;3.50;2.12;;;;;;;;;;4405148;32;20217;-55
2021/05/20 04:30:48;;;;;;;8.95;2.87;;;;;;;;;;4418879;32;20280;-54
2021/05/20 04:33:14;;;;;;;6.10;2.97;;;;;;;;;;4418360;32;20243;-54
2021/05/20 04:35:40;;;;;;;7.40;2.97;;;;;;;;;;4418182;32;20277;-55
2021/05/20 04:38:06;;;;;;;8.68;3.40;;;;;;;;;;4418816;32;20217;-54
2021/05/20 04:40:34;;;;;;;7.60;4.57;;;;;;;;;;4418546;32;20301;-55
2021/05/20 04:42:59;;;;;;;6.82;3.10;;;;;;;;;;4417968;32;20217;-54
2021/05/20 04:45:25;;;;;;;3.75;2.17;;;;;;;;;;4418100;32;20310;-56
2021/05/20 04:47:50;;;;;;;7.25;3.00;;;;;;;;;;4418056;32;20327;-61
2021/05/20 04:50:17;;;;;;;4.62;2.75;;;;;;;;;;4404159;32;20335;-54
2021/05/20 04:52:43;;;;;;;9.65;2.67;;;;;;;;;;4404861;32;20283;-54
2021/05/20 04:55:10;;;;;;;3.40;2.00;;;;;;;;;;4418236;32;20228;-54
2021/05/20 04:57:35;;;;;;;2.83;1.23;;;;;;;;;;4418543;32;20252;-54
2021/05/20 05:00:02;;;;;;;3.42;1.33;;;;;;;;;;4418211;32;20325;-54
2021/05/20 05:02:28;;;;;;;6.25;2.00;;;;;;;;;;4417994;32;20228;-55
2021/05/20 05:04:53;;;;;;;5.47;2.92;;;;;;;;;;4418427;32;20578;-55
2021/05/20 05:07:19;;;;;;;4.12;2.05;;;;;;;;;;4418380;32;20235;-54
2021/05/20 05:09:45;;;;;;;3.12;2.03;;;;;;;;;;4417818;32;20292;-54
2021/05/20 05:12:10;;;;;;;6.80;4.07;;;;;;;;;;4418335;32;20337;-54
2021/05/20 05:14:35;;;;;;;5.65;2.55;;;;;;;;;;4418133;32;20193;-54
2021/05/20 05:17:01;;;;;;;1.65;1.12;;;;;;;;;;4418027;32;20217;-54
2021/05/20 05:19:26;;;;;;;4.78;1.30;;;;;;;;;;4417852;32;20256;-54
2021/05/20 05:21:52;;;;;;;2.35;1.25;;;;;;;;;;4417936;32;20247;-55
2021/05/20 05:24:17;;;;;;;3.17;1.55;;;;;;;;;;4404064;32;20538;-54
2021/05/20 05:26:43;;;;;;;2.90;1.58;;;;;;;;;;4417939;32;20289;-54
2021/05/20 05:29:09;;;;;;;3.87;1.55;;;;;;;;;;4417746;32;20316;-53
2021/05/20 05:31:36;;;;;;;4.50;1.98;;;;;;;;;;4417460;32;20700;-55
2021/05/20 05:34:02;;;;;;;3.87;1.30;;;;;;;;;;4417289;32;20202;-54
2021/05/20 05:36:27;;;;;;;3.22;1.40;;;;;;;;;;4417496;32;20235;-54
2021/05/20 05:38:53;;;;;;;7.55;1.20;;;;;;;;;;4417437;32;20503;-54
2021/05/20 05:41:18;;;;;;;9.73;1.25;;;;;;;;;;4417460;32;20221;-54
2021/05/20 05:43:44;;;;;;;3.95;1.05;;;;;;;;;;4417505;32;20601;-55
2021/05/20 05:46:09;;;;;;;4.47;1.50;;;;;;;;;;4417225;32;20313;-55
2021/05/20 05:48:35;;;;;;;4.95;1.10;;;;;;;;;;4403306;32;20771;-55
2021/05/20 05:51:01;;;;;;;5.90;1.98;;;;;;;;;;4417596;32;20688;-55
2021/05/20 05:53:27;;;;;;;2.80;1.37;;;;;;;;;;4417807;32;20213;-55
2021/05/20 05:55:53;;;;;;;7.82;2.75;;;;;;;;;;4415540;32;20284;-55
2021/05/20 05:58:20;;;;;;;2.95;1.20;;;;;;;;;;4415663;32;20232;-55
2021/05/20 06:00:46;;;;;;;4.00;1.70;;;;;;;;;;4415669;32;20296;-55
2021/05/20 06:03:13;;;;;;;7.20;1.67;;;;;;;;;;4414949;32;20382;-55
2021/05/20 06:05:38;;;;;;;6.47;1.95;;;;;;;;;;4415196;32;20233;-55
2021/05/20 06:08:05;;;;;;;4.60;1.48;;;;;;;;;;4415722;32;20601;-54
2021/05/20 06:10:30;;;;;;;3.58;1.45;;;;;;;;;;4416496;32;20297;-55
2021/05/20 06:12:56;;;;;;;10.25;2.08;;;;;;;;;;4417809;32;20296;-54
2021/05/20 06:15:21;;;;;;;3.85;2.00;;;;;;;;;;4417686;32;20260;-56
2021/05/20 06:17:47;;;;;;;3.00;1.80;;;;;;;;;;4417369;32;20676;-54
2021/05/20 06:20:12;;;;;;;6.00;1.05;;;;;;;;;;4417398;32;20288;-56
2021/05/20 06:22:38;;;;;;;5.55;1.58;;;;;;;;;;4417698;32;20221;-54
2021/05/20 06:25:05;;;;;;;1.48;0.90;;;;;;;;;;4417470;32;20645;-54
2021/05/20 06:27:30;;;;;;;4.10;1.08;;;;;;;;;;4417221;32;20217;-55
2021/05/20 06:29:56;;;;;;;7.07;1.45;;;;;;;;;;4417303;32;20296;-55
2021/05/20 06:32:22;;;;;;;7.85;1.80;;;;;;;;;;4417332;32;20217;-55
2021/05/20 06:34:47;;;;;;;1.20;0.90;;;;;;;;;;4407612;32;20257;-55
2021/05/20 06:37:13;;;;;;;3.05;1.08;;;;;;;;;;4402317;32;20556;-55
2021/05/20 06:39:39;;;;;;;2.92;1.05;;;;;;;;;;4402424;32;20240;-54
2021/05/20 06:42:08;;;;;;;7.78;0.95;;;;;;;;;;4410589;32;20402;-54
2021/05/20 06:44:35;;;;;;;2.15;0.90;;;;;;;;;;4416858;32;20277;-54
2021/05/20 06:47:00;;;;;;;2.10;0.90;;;;;;;;;;4417157;32;20596;-55
2021/05/20 06:49:26;;;;;;;1.83;1.00;;;;;;;;;;4417038;32;20197;-55
2021/05/20 06:51:51;;;;;;;3.53;2.12;;;;;;;;;;4417341;32;20244;-55
2021/05/20 06:54:17;;;;;;;3.65;1.30;;;;;;;;;;4403184;32;20229;-55
2021/05/20 06:56:46;;;;;;;1.58;0.90;;;;;;;;;;4416969;32;20278;-55
2021/05/20 07:01:56;;;;;;;2.10;1.17;;;;;;;;;;4417053;32;20648;-55
2021/05/20 07:04:22;;;;;;;0.90;0.82;;;;;;;;;;4417120;32;20221;-54
2021/05/20 07:06:47;;;;;;;2.33;1.02;;;;;;;;;;4417196;32;20307;-54
2021/05/20 07:09:13;;;;;;;4.95;1.35;;;;;;;;;;4417395;32;20556;-55
2021/05/20 07:11:38;;;;;;;2.15;1.70;;;;;;;;;;4419658;32;20221;-54
2021/05/20 07:14:04;;;;;;;1.90;1.35;;;;;;;;;;4419782;32;20213;-54
2021/05/20 07:16:30;;;;;;;4.32;0.70;;;;;;;;;;4419465;32;20217;-54
2021/05/20 07:18:55;;;;;;;0.98;0.60;;;;;;;;;;4418712;32;20758;-55
2021/05/20 07:21:21;;;;;;;1.98;0.88;;;;;;;;;;4405921;32;20229;-55
2021/05/20 07:23:46;;;;;;;0.60;0.60;;;;;;;;;;4419634;32;20694;-55
2021/05/20 07:26:12;;;;;;;2.75;1.17;;;;;;;;;;4419608;32;20270;-55
2021/05/20 07:28:37;;;;;;;6.37;1.00;;;;;;;;;;4419299;32;20259;-55
2021/05/20 07:31:02;;;;;;;7.80;1.70;;;;;;;;;;4413793;32;20303;-55
2021/05/20 07:33:30;;;;;;;1.42;0.90;;;;;;;;;;4404218;32;20655;-55
2021/05/20 07:35:55;;;;;;;1.48;0.90;;;;;;;;;;4415818;32;20375;-55
2021/05/20 07:38:21;;;;;;;1.42;0.70;;;;;;;;;;4419270;32;20224;-55
2021/05/20 07:40:46;;;;;;;1.98;0.90;;;;;;;;;;4419573;32;21537;-55
2021/05/20 07:43:12;;;;;;;1.35;0.90;;;;;;;;;;4419047;32;20346;-55
2021/05/20 07:45:37;;;;;;;1.95;1.20;;;;;;;;;;4418939;32;20293;-55
2021/05/20 07:48:03;;;;;;;8.65;1.90;;;;;;;;;;4419280;32;20228;-55
2021/05/20 07:50:28;;;;;;;0.73;0.70;;;;;;;;;;4419114;32;20724;-55
2021/05/20 07:52:54;;;;;;;2.15;0.88;;;;;;;;;;4419262;32;20208;-56
2021/05/20 07:55:19;;;;;;;3.22;1.20;;;;;;;;;;4418954;32;20290;-56
2021/05/20 07:57:45;;;;;;;2.80;0.80;;;;;;;;;;4419203;32;20320;-54
2021/05/20 08:00:15;;;;;;;1.80;0.95;;;;;;;;;;4419150;32;20268;-56
2021/05/20 08:05:35;;;;;;;0.95;0.80;;;;;;;;;;4418835;32;20307;-55
2021/05/20 08:08:28;;;;;;;3.65;0.90;;;;;;;;;;4405442;32;20229;-55
2021/05/20 08:10:50;;;;;;;0.90;0.70;;;;;;;;;;4418544;32;20259;-55
2021/05/20 08:13:16;;;;;;;3.55;0.80;;;;;;;;;;4418822;32;20205;-56
2021/05/20 08:15:42;;;;;;;1.52;0.70;;;;;;;;;;4418571;32;20276;-57
2021/05/20 08:18:07;;;;;;;1.25;0.80;;;;;;;;;;4418775;32;20240;-55
2021/05/20 08:20:33;;;;;;;1.77;1.10;;;;;;;;;;4418961;32;20307;-55
2021/05/20 08:22:59;;;;;;;3.95;1.50;;;;;;;;;;4419098;32;20237;-55
2021/05/20 08:25:24;;;;;;;1.60;0.90;;;;;;;;;;4418705;32;20451;-55
2021/05/20 08:27:50;;;;;;;1.02;0.90;;;;;;;;;;4418924;32;22462;-55
2021/05/20 08:30:17;;;;;;;4.03;0.80;;;;;;;;;;4418561;32;20328;-55
2021/05/20 08:32:45;;;;;;;2.17;0.70;;;;;;;;;;4403520;32;20256;-55
2021/05/20 08:35:11;;;;;;;2.55;0.68;;;;;;;;;;4410723;32;20221;-56
2021/05/20 08:37:38;;;;;;;0.50;0.50;;;;;;;;;;4418945;32;20222;-55
2021/05/20 08:40:05;;;;;;;1.95;0.75;;;;;;;;;;4418876;32;20284;-55
2021/05/20 08:42:32;;;;;;;1.48;1.00;;;;;;;;;;4418334;32;20280;-55
2021/05/20 08:45:08;;;;;;;1.58;0.50;;;;;;;;;;4418994;32;20652;-55
2021/05/20 08:47:34;;;;;;;1.12;0.80;;;;;;;;;;4418510;32;20275;-55
2021/05/20 08:50:00;;;;;;;3.33;1.37;;;;;;;;;;4418396;32;20300;-57
2021/05/20 08:52:25;;;;;;;1.52;1.00;;;;;;;;;;4418302;32;20334;-57
2021/05/20 08:54:51;;;;;;;1.30;0.90;;;;;;;;;;4417679;32;20694;-55
2021/05/20 08:57:23;;;;;;;5.03;0.70;;;;;;;;;;4418448;32;20229;-55
2021/05/20 08:59:48;;;;;;;0.57;0.50;;;;;;;;;;4417958;32;20247;-55
2021/05/20 09:02:27;;;;;;;1.00;0.90;;;;;;;;;;4418254;32;20537;-54
2021/05/20 09:05:20;;;;;;;4.57;0.85;;;;;;;;;;4418640;32;20519;-54
2021/05/20 09:07:55;;;;;;;0.50;0.50;;;;;;;;;;4413437;32;20230;-54
2021/05/20 09:10:24;;;;;;;3.12;0.50;;;;;;;;;;4418240;32;20243;-54
2021/05/20 09:12:53;;;;;;;1.05;0.50;;;;;;;;;;4418096;32;20367;-54
2021/05/20 09:15:19;;;;;;;2.70;0.60;;;;;;;;;;4417577;32;20198;-54
2021/05/20 09:17:46;;;;;;;0.85;0.60;;;;;;;;;;4418099;32;20354;-54
2021/05/20 09:20:12;;;;;;;1.27;0.40;;;;;;;;;;4418044;32;20276;-55
2021/05/20 09:22:38;;;;;;;0.65;0.62;;;;;;;;;;4417957;32;20284;-55
2021/05/20 09:25:06;;;;;;;0.75;0.40;;;;;;;;;;4418143;32;20318;-55
2021/05/20 09:27:35;;;;;;;0.73;0.60;;;;;;;;;;4417972;32;20225;-55
2021/05/20 09:30:10;;;;;;;1.00;0.65;;;;;;;;;;4417802;32;20197;-55
2021/05/20 09:32:37;;;;;;;0.60;0.60;;;;;;;;;;4402618;32;20572;-54
2021/05/20 09:35:05;;;;;;;1.90;0.60;;;;;;;;;;4409030;32;20617;-53
2021/05/20 09:37:33;;;;;;;2.50;0.50;;;;;;;;;;4417687;32;20308;-56
2021/05/20 09:40:00;;;;;;;1.30;0.45;;;;;;;;;;4417925;32;20265;-55
2021/05/20 09:42:29;;;;;;;5.70;1.20;;;;;;;;;;4417541;32;20311;-55
2021/05/20 09:44:54;;;;;;;4.00;1.23;;;;;;;;;;4417800;32;20209;-55
2021/05/20 09:47:20;;;;;;;1.67;0.90;;;;;;;;;;4417912;32;20252;-54
2021/05/20 09:50:06;;;;;;;5.35;1.52;;;;;;;;;;4417744;32;20198;-55
2021/05/20 09:52:33;;;;;;;4.70;1.17;;;;;;;;;;4417984;32;20251;-54
2021/05/20 09:55:00;;;;;;;1.12;0.70;;;;;;;;;;4418128;32;20201;-53
2021/05/20 09:57:33;;;;;;;1.15;0.60;;;;;;;;;;4418697;32;20323;-54
2021/05/20 10:00:12;;;;;;;5.37;1.30;;;;;;;;;;4417827;32;20248;-55
2021/05/20 10:02:40;;;;;;;5.15;0.73;;;;;;;;;;4417861;32;20242;-55
2021/05/20 10:05:19;;;;;;;1.05;0.70;;;;;;;;;;4417592;32;20693;-55
2021/05/20 10:07:45;;;;;;;2.05;1.33;;;;;;;;;;4417633;32;20747;-55
2021/05/20 10:10:11;;;;;;;6.30;1.40;;;;;;;;;;4417601;32;20302;-55
2021/05/20 10:12:39;;;;;;;1.35;0.90;;;;;;;;;;4417779;32;20304;-55
2021/05/20 10:15:07;;;;;;;2.67;0.95;;;;;;;;;;4417311;32;20205;-55
2021/05/20 10:17:33;;;;;;;2.70;0.73;;;;;;;;;;4417069;32;20241;-55
2021/05/20 10:20:00;;;;;;;1.20;0.60;;;;;;;;;;4417052;32;20300;-55
2021/05/20 10:22:26;;;;;;;1.65;0.60;;;;;;;;;;4405143;32;20229;-54
2021/05/20 10:24:52;;;;;;;0.82;0.68;;;;;;;;;;4401013;32;20337;-55
2021/05/20 10:27:17;;;;;;;1.23;0.70;;;;;;;;;;4401450;32;20225;-54
2021/05/20 10:29:43;;;;;;;1.92;0.70;;;;;;;;;;4401953;32;20210;-54
2021/05/20 10:32:09;;;;;;;0.70;0.50;;;;;;;;;;4414841;32;20253;-55
2021/05/20 10:34:36;;;;;;;0.60;0.60;;;;;;;;;;4417573;32;20287;-54
2021/05/20 10:37:06;;;;;;;3.45;0.70;;;;;;;;;;4417432;32;20411;-55
2021/05/20 10:39:32;;;;;;;0.90;0.75;;;;;;;;;;4417473;32;20275;-56
2021/05/20 10:41:58;;;;;;;4.62;0.70;;;;;;;;;;4417187;32;20264;-55
2021/05/20 10:44:25;;;;;;;1.73;0.80;;;;;;;;;;4417560;32;20277;-54
2021/05/20 10:46:57;;;;;;;6.47;1.23;;;;;;;;;;4420170;32;20284;-55
2021/05/20 10:49:51;;;;;;;1.70;0.80;;;;;;;;;;4420241;32;20216;-54
2021/05/20 10:52:37;;;;;;;1.05;0.60;;;;;;;;;;4419887;32;20614;-54
2021/05/20 10:55:05;;;;;;;3.58;0.80;;;;;;;;;;4420250;32;20248;-54
2021/05/20 10:57:46;;;;;;;2.12;0.75;;;;;;;;;;4419760;32;20392;-54
2021/05/20 11:00:30;;;;;;;4.62;0.98;;;;;;;;;;4419983;32;20340;-54
2021/05/20 11:02:56;;;;;;;1.52;0.70;;;;;;;;;;4419829;32;20700;-55
2021/05/20 11:05:40;;;;;;;2.15;0.70;;;;;;;;;;4419604;32;20280;-54
2021/05/20 11:08:10;;;;;;;3.08;0.80;;;;;;;;;;4419755;32;20690;-54
2021/05/20 11:10:37;;;;;;;2.22;0.60;;;;;;;;;;4405949;32;20370;-54
2021/05/20 11:13:04;;;;;;;0.57;0.50;;;;;;;;;;4419867;32;20220;-54
2021/05/20 11:15:29;;;;;;;2.22;0.70;;;;;;;;;;4420137;32;20247;-55
2021/05/20 11:17:55;;;;;;;2.42;0.70;;;;;;;;;;4419817;32;20244;-55
2021/05/20 11:20:23;;;;;;;3.45;0.70;;;;;;;;;;4405882;32;20726;-54
2021/05/20 11:23:15;;;;;;;2.10;0.82;;;;;;;;;;4419522;32;20728;-55
2021/05/20 11:25:42;;;;;;;1.85;0.98;;;;;;;;;;4419619;32;20203;-55
2021/05/20 11:28:08;;;;;;;1.35;0.65;;;;;;;;;;4419448;32;20342;-55
2021/05/20 11:30:34;;;;;;;2.83;0.93;;;;;;;;;;4419457;32;20326;-56
2021/05/20 11:33:01;;;;;;;3.25;0.60;;;;;;;;;;4419492;32;20247;-54
2021/05/20 11:37:52;;;;;;;1.73;1.10;;;;;;;;;;4419482;32;20245;-55
2021/05/20 11:40:27;;;;;;;1.83;0.75;;;;;;;;;;4419337;32;20318;-55
2021/05/20 11:42:53;;;;;;;2.50;0.80;;;;;;;;;;4419150;32;20277;-55
2021/05/20 11:45:27;;;;;;;2.25;0.90;;;;;;;;;;4419213;32;20279;-56
2021/05/20 11:47:53;;;;;;;1.20;0.90;;;;;;;;;;4419328;32;20226;-55
2021/05/20 11:50:19;;;;;;;5.80;1.33;;;;;;;;;;4405498;32;20357;-55
2021/05/20 11:52:45;;;;;;;3.40;1.55;;;;;;;;;;4419659;32;20289;-55
2021/05/20 11:55:10;;;;;;;17.42;2.65;;;;;;;;;;4419424;32;20339;-55
2021/05/20 11:57:36;;;;;;;2.72;1.23;;;;;;;;;;4419651;32;20340;-55
2021/05/20 12:00:02;;;;;;;1.90;1.30;;;;;;;;;;4419737;32;20717;-54
2021/05/20 12:02:30;;;;;;;4.40;1.37;;;;;;;;;;4419926;32;20232;-54
2021/05/20 12:05:02;;;;;;;5.68;2.20;;;;;;;;;;4419611;32;20280;-55
2021/05/20 12:07:29;;;;;;;1.60;0.90;;;;;;;;;;4419962;32;20531;-55
2021/05/20 12:10:06;;;;;;;8.68;5.10;;;;;;;;;;4419169;32;20225;-54
2021/05/20 12:12:32;;;;;;;8.65;1.23;;;;;;;;;;4419428;32;20510;-54
2021/05/20 12:14:57;;;;;;;1.67;1.00;;;;;;;;;;4419651;32;20351;-56
2021/05/20 12:17:24;;;;;;;4.07;1.00;;;;;;;;;;4419692;32;20695;-54
2021/05/20 12:19:51;;;;;;;1.58;0.90;;;;;;;;;;4419187;32;20241;-54
2021/05/20 12:22:24;;;;;;;1.12;1.02;;;;;;;;;;4419171;32;20246;-54
2021/05/20 12:24:55;;;;;;;3.62;1.00;;;;;;;;;;4419300;32;20294;-54
2021/05/20 12:27:22;;;;;;;1.40;0.70;;;;;;;;;;4419522;32;20213;-54
2021/05/20 12:29:50;;;;;;;3.17;1.10;;;;;;;;;;4404807;32;20620;-55
2021/05/20 12:32:38;;;;;;;1.92;0.75;;;;;;;;;;4418945;32;20338;-55
2021/05/20 12:35:13;;;;;;;1.37;0.95;;;;;;;;;;4418631;32;20332;-55
2021/05/20 12:37:44;;;;;;;2.20;1.15;;;;;;;;;;4405025;32;20665;-55
2021/05/20 12:40:11;;;;;;;2.17;1.05;;;;;;;;;;4418851;32;20224;-55
2021/05/20 12:42:37;;;;;;;2.87;1.02;;;;;;;;;;4418631;32;20236;-55
2021/05/20 12:45:03;;;;;;;3.05;0.90;;;;;;;;;;4418949;32;20268;-56
2021/05/20 12:47:29;;;;;;;2.85;0.82;;;;;;;;;;4418933;32;20229;-54
2021/05/20 12:49:57;;;;;;;3.50;1.00;;;;;;;;;;4404561;32;20327;-55
2021/05/20 12:52:23;;;;;;;1.70;1.08;;;;;;;;;;4418799;32;20236;-55
2021/05/20 12:54:49;;;;;;;2.80;1.62;;;;;;;;;;4418379;32;20241;-55
2021/05/20 12:57:14;;;;;;;1.77;1.12;;;;;;;;;;4418673;32;20217;-55
2021/05/20 12:59:41;;;;;;;4.12;1.65;;;;;;;;;;4418125;32;20197;-55
2021/05/20 13:02:08;;;;;;;4.18;0.80;;;;;;;;;;4418112;32;20220;-54
2021/05/20 13:04:34;;;;;;;1.83;0.98;;;;;;;;;;4418125;32;20555;-55
2021/05/20 13:07:04;;;;;;;2.35;1.25;;;;;;;;;;4417926;32;20247;-54
2021/05/20 13:09:31;;;;;;;5.07;1.23;;;;;;;;;;4418181;32;20261;-54
2021/05/20 13:12:06;;;;;;;0.82;0.65;;;;;;;;;;4418378;32;20260;-55
2021/05/20 13:14:44;;;;;;;6.10;2.55;;;;;;;;;;4417976;32;20302;-57
2021/05/20 13:23:12;;;;;;;2.00;0.80;;;;;;;;;;4389010;32;20224;-54
2021/05/20 13:25:37;;;;;;;1.70;0.80;;;;;;;;;;4418034;32;20642;-53
2021/05/20 13:28:04;;;;;;;3.25;0.90;;;;;;;;;;4418005;32;20389;-54
2021/05/20 13:33:03;;;;;;;5.70;1.33;;;;;;;;;;4417950;32;20237;-54
2021/05/20 13:35:28;;;;;;;2.55;1.40;;;;;;;;;;4417676;32;20193;-54
2021/05/20 13:37:54;;;;;;;5.37;1.10;;;;;;;;;;4417923;32;20362;-55
2021/05/20 13:40:23;;;;;;;3.08;2.00;;;;;;;;;;4417693;32;20299;-57
2021/05/20 13:42:49;;;;;;;3.67;1.70;;;;;;;;;;4417582;32;20282;-55
2021/05/20 13:45:16;;;;;;;7.57;2.08;;;;;;;;;;4417744;32;20583;-55
2021/05/20 13:47:42;;;;;;;0.90;0.60;;;;;;;;;;4417693;32;20279;-54
2021/05/20 13:50:08;;;;;;;2.33;1.37;;;;;;;;;;4403821;32;20296;-55
2021/05/20 13:52:38;;;;;;;4.18;1.70;;;;;;;;;;4417555;32;20528;-54
2021/05/20 13:55:05;;;;;;;2.20;1.23;;;;;;;;;;4418040;32;20224;-54
2021/05/20 13:57:33;;;;;;;1.65;0.93;;;;;;;;;;4417771;32;20364;-56
2021/05/20 14:00:02;;;;;;;4.55;0.80;;;;;;;;;;4417302;32;20270;-54
2021/05/20 14:02:33;;;;;;;1.48;0.82;;;;;;;;;;4416463;32;20236;-55
2021/05/20 14:04:58;;;;;;;2.80;1.45;;;;;;;;;;4415815;32;20220;-56
2021/05/20 14:07:24;;;;;;;6.07;1.00;;;;;;;;;;4416663;32;20278;-55
2021/05/20 14:09:50;;;;;;;3.47;0.80;;;;;;;;;;4416681;32;20267;-54
2021/05/20 14:12:17;;;;;;;1.45;1.00;;;;;;;;;;4416864;32;20292;-55
2021/05/20 14:14:48;;;;;;;0.73;0.70;;;;;;;;;;4417354;32;20258;-54
2021/05/20 14:17:18;;;;;;;1.98;0.90;;;;;;;;;;4417834;32;20225;-55
2021/05/20 14:19:49;;;;;;;4.95;0.80;;;;;;;;;;4419854;32;20730;-56
2021/05/20 14:22:18;;;;;;;2.60;0.90;;;;;;;;;;4406788;32;20624;-56
2021/05/20 14:24:47;;;;;;;1.62;1.12;;;;;;;;;;4406627;32;20267;-56
2021/05/20 14:27:17;;;;;;;4.45;1.17;;;;;;;;;;4420412;32;20232;-56
2021/05/20 14:29:44;;;;;;;1.70;0.95;;;;;;;;;;4406433;32;20260;-56
2021/05/20 14:32:10;;;;;;;5.68;1.02;;;;;;;;;;4420149;32;20240;-56
2021/05/20 14:34:35;;;;;;;3.20;1.27;;;;;;;;;;4419923;32;20410;-55
2021/05/20 14:37:02;;;;;;;2.30;0.73;;;;;;;;;;4419391;32;20221;-56
2021/05/20 14:39:27;;;;;;;3.90;1.52;;;;;;;;;;4420111;32;20328;-55
2021/05/20 14:41:53;;;;;;;2.33;0.90;;;;;;;;;;4419620;32;20654;-56
2021/05/20 14:44:18;;;;;;;7.15;1.45;;;;;;;;;;4419757;32;20224;-54
2021/05/20 14:46:44;;;;;;;2.78;1.37;;;;;;;;;;4420077;32;20252;-54
2021/05/20 14:49:13;;;;;;;1.30;0.73;;;;;;;;;;4419673;32;20255;-54
2021/05/20 14:51:42;;;;;;;3.75;0.80;;;;;;;;;;4419682;32;20644;-55
2021/05/20 14:54:21;;;;;;;0.75;0.68;;;;;;;;;;4405522;32;20233;-55
2021/05/20 14:57:13;;;;;;;1.17;0.82;;;;;;;;;;4419895;32;20288;-55
2021/05/20 15:07:32;;;;;;;1.70;0.90;;;;;;;;;;4419351;32;20300;-55